createdAt,value
2022-08-08T00:02:31.657Z,2.40
2022-08-08T00:04:53.130Z,2.60
2022-08-08T00:07:33.772Z,2.50
2022-08-08T00:10:11.311Z,2.63
2022-08-08T00:12:59.562Z,2.70
2022-08-08T00:15:57.539Z,2.53
2022-08-08T00:18:30.319Z,2.53
2022-08-08T00:21:06.122Z,2.70
2022-08-08T00:23:47.405Z,2.77
2022-08-08T00:26:29.959Z,2.57
2022-08-08T00:29:09.070Z,2.67
2022-08-08T00:32:20.751Z,2.50
2022-08-08T00:35:21.166Z,2.77
2022-08-08T00:38:32.318Z,2.60
2022-08-08T00:42:07.958Z,2.30
2022-08-08T00:45:45.406Z,2.73
2022-08-08T00:49:02.343Z,2.70
2022-08-08T00:52:34.725Z,2.43
2022-08-08T00:55:36.223Z,2.87
2022-08-08T00:58:54.421Z,2.43
2022-08-08T01:01:38.182Z,2.33
2022-08-08T01:05:05.014Z,2.63
2022-08-08T01:08:31.611Z,2.30
2022-08-08T01:12:11.646Z,2.70
2022-08-08T01:15:54.742Z,2.87
2022-08-08T01:19:13.845Z,2.20
2022-08-08T01:22:43.862Z,2.70
2022-08-08T01:26:11.647Z,2.90
2022-08-08T01:29:35.513Z,2.60
2022-08-08T01:33:27.509Z,2.83
2022-08-08T01:36:32.842Z,2.87
2022-08-08T01:39:28.799Z,2.60
2022-08-08T01:42:15.597Z,3.00
2022-08-08T01:45:13.717Z,2.50
2022-08-08T01:48:16.517Z,2.67
2022-08-08T01:51:06.040Z,2.37
2022-08-08T01:55:15.791Z,2.93
2022-08-08T01:57:07.190Z,3.07
2022-08-08T02:00:13.034Z,2.30
2022-08-08T02:03:57.027Z,2.83
2022-08-08T02:06:32.248Z,2.70
2022-08-08T02:09:18.231Z,2.97
2022-08-08T02:11:53.124Z,2.90
2022-08-08T02:14:50.140Z,2.93
2022-08-08T02:17:42.277Z,3.10
2022-08-08T02:21:01.138Z,3.10
2022-08-08T02:23:22.741Z,2.47
2022-08-08T02:26:01.989Z,2.30
2022-08-08T02:28:51.663Z,3.00
2022-08-08T02:31:59.506Z,2.93
2022-08-08T02:35:10.805Z,2.90
2022-08-08T02:38:05.751Z,2.90
2022-08-08T02:40:50.618Z,3.00
2022-08-08T02:44:35.575Z,3.00
2022-08-08T02:47:06.652Z,3.27
2022-08-08T02:50:17.822Z,2.47
2022-08-08T02:53:13.871Z,2.63
2022-08-08T02:56:48.118Z,3.00
2022-08-08T03:00:34.152Z,2.80
2022-08-08T03:05:05.090Z,2.70
2022-08-08T03:07:59.328Z,3.17
2022-08-08T03:11:48.084Z,2.53
2022-08-08T03:15:57.496Z,3.03
2022-08-08T03:18:04.608Z,2.90
2022-08-08T03:20:47.125Z,2.60
2022-08-08T03:23:23.667Z,2.60
2022-08-08T03:25:52.778Z,2.57
2022-08-08T03:28:29.199Z,2.90
2022-08-08T03:31:07.501Z,2.93
2022-08-08T03:33:55.863Z,2.87
2022-08-08T03:36:30.612Z,2.80
2022-08-08T03:39:14.987Z,2.40
2022-08-08T03:42:12.520Z,2.60
2022-08-08T03:44:35.404Z,2.80
2022-08-08T03:47:14.018Z,2.50
2022-08-08T03:49:57.804Z,2.60
2022-08-08T03:52:33.945Z,2.80
2022-08-08T03:55:54.905Z,2.47
2022-08-08T03:58:34.736Z,3.23
2022-08-08T04:01:02.142Z,2.63
2022-08-08T04:03:58.639Z,2.60
2022-08-08T04:06:30.317Z,3.23
2022-08-08T04:09:06.846Z,2.80
2022-08-08T04:11:53.712Z,3.07
2022-08-08T04:14:34.876Z,3.20
2022-08-08T04:17:06.979Z,3.10
2022-08-08T04:19:43.851Z,3.23
2022-08-08T04:22:16.539Z,3.00
2022-08-08T04:24:48.701Z,3.10
2022-08-08T04:28:02.936Z,2.93
2022-08-08T04:30:18.608Z,3.00
2022-08-08T04:32:50.549Z,2.73
2022-08-08T04:35:20.163Z,2.83
2022-08-08T04:37:51.365Z,3.20
2022-08-08T04:40:24.296Z,3.20
2022-08-08T04:43:01.140Z,2.90
2022-08-08T04:45:29.905Z,2.63
2022-08-08T04:48:00.307Z,2.90
2022-08-08T04:50:37.775Z,3.10
2022-08-08T04:53:14.004Z,3.33
2022-08-08T04:55:56.974Z,2.70
2022-08-08T04:58:27.141Z,2.80
2022-08-08T05:00:56.209Z,3.30
2022-08-08T05:04:09.568Z,2.80
2022-08-08T05:06:18.249Z,2.67
2022-08-08T05:08:53.946Z,2.93
2022-08-08T05:11:24.437Z,3.00
2022-08-08T05:13:58.725Z,2.87
2022-08-08T05:16:51.028Z,3.40
2022-08-08T05:20:09.609Z,2.80
2022-08-08T05:22:08.670Z,2.87
2022-08-08T05:24:39.161Z,2.73
2022-08-08T05:27:09.251Z,3.10
2022-08-08T05:29:40.855Z,3.23
2022-08-08T05:32:12.825Z,3.93
2022-08-08T05:34:45.036Z,4.40
2022-08-08T05:37:20.520Z,3.53
2022-08-08T05:39:53.613Z,3.70
2022-08-08T05:42:25.904Z,3.53
2022-08-08T05:45:00.680Z,3.50
2022-08-08T05:47:52.520Z,3.40
2022-08-08T05:50:29.967Z,3.17
2022-08-08T05:53:53.718Z,3.30
2022-08-08T05:56:07.832Z,3.30
2022-08-08T05:58:53.844Z,2.93
2022-08-08T06:01:55.856Z,3.40
2022-08-08T06:04:23.598Z,3.47
2022-08-08T06:06:54.067Z,3.67
2022-08-08T06:09:58.230Z,3.57
2022-08-08T06:12:29.510Z,3.97
2022-08-08T06:15:03.078Z,3.70
2022-08-08T06:17:51.296Z,3.20
2022-08-08T06:20:25.768Z,3.70
2022-08-08T06:22:56.280Z,3.60
2022-08-08T06:26:35.257Z,3.10
2022-08-08T06:28:20.259Z,2.70
2022-08-08T06:31:00.834Z,2.70
2022-08-08T06:34:25.459Z,3.00
2022-08-08T06:36:53.372Z,2.63
2022-08-08T06:39:23.777Z,2.83
2022-08-08T06:41:56.893Z,2.70
2022-08-08T06:44:27.512Z,2.97
2022-08-08T06:47:00.101Z,2.47
2022-08-08T06:49:55.185Z,2.70
2022-08-08T06:52:20.865Z,2.30
2022-08-08T06:54:51.296Z,2.57
2022-08-08T06:57:19.718Z,2.63
2022-08-08T07:00:09.870Z,2.77
2022-08-08T07:02:38.002Z,2.40
2022-08-08T07:05:20.469Z,2.67
2022-08-08T07:08:05.583Z,2.27
2022-08-08T07:10:46.003Z,2.77
2022-08-08T07:13:25.252Z,2.17
2022-08-08T07:16:06.192Z,2.30
2022-08-08T07:18:56.016Z,2.13
2022-08-08T07:21:38.730Z,1.97
2022-08-08T07:24:20.526Z,2.20
2022-08-08T07:26:55.367Z,2.30
2022-08-08T07:30:02.534Z,2.20
2022-08-08T07:32:15.670Z,2.27
2022-08-08T07:34:59.305Z,2.40
2022-08-08T07:37:56.129Z,2.07
2022-08-08T07:40:30.098Z,2.07
2022-08-08T07:43:09.358Z,2.10
2022-08-08T07:46:04.956Z,2.07
2022-08-08T07:48:30.058Z,1.60
2022-08-08T07:51:01.157Z,1.90
2022-08-08T07:54:02.309Z,2.27
2022-08-08T07:56:35.378Z,2.07
2022-08-08T07:59:10.482Z,1.70
2022-08-08T08:02:34.998Z,1.80
2022-08-08T08:04:43.386Z,2.00
2022-08-08T08:07:12.757Z,1.83
2022-08-08T08:09:43.924Z,1.80
2022-08-08T08:12:26.538Z,1.70
2022-08-08T08:15:07.863Z,1.87
2022-08-08T08:17:47.889Z,1.30
2022-08-08T08:20:20.931Z,1.70
2022-08-08T08:22:49.450Z,1.83
2022-08-08T08:25:43.116Z,1.47
2022-08-08T08:28:09.306Z,1.60
2022-08-08T08:30:39.655Z,1.63
2022-08-08T08:33:11.028Z,1.80
2022-08-08T08:36:19.271Z,1.60
2022-08-08T08:38:29.878Z,1.63
2022-08-08T08:41:06.020Z,1.63
2022-08-08T08:43:42.483Z,1.57
2022-08-08T08:46:15.126Z,1.48
2022-08-08T08:48:49.099Z,1.27
2022-08-08T08:51:18.786Z,1.30
2022-08-08T08:53:58.952Z,1.63
2022-08-08T08:56:29.982Z,1.50
2022-08-08T08:59:02.171Z,1.75
2022-08-08T09:01:36.838Z,1.50
2022-08-08T09:04:31.017Z,1.70
2022-08-08T09:07:12.184Z,1.52
2022-08-08T09:09:48.365Z,1.40
2022-08-08T09:12:29.218Z,1.50
2022-08-08T09:15:00.746Z,1.42
2022-08-08T09:17:40.683Z,1.15
2022-08-08T09:21:56.138Z,1.45
2022-08-08T09:23:03.053Z,1.10
2022-08-08T09:25:36.288Z,1.20
2022-08-08T09:28:35.451Z,1.38
2022-08-08T09:31:15.045Z,1.58
2022-08-08T09:34:15.553Z,1.23
2022-08-08T09:36:36.198Z,1.60
2022-08-08T09:39:10.217Z,1.30
2022-08-08T09:42:14.008Z,1.83
2022-08-08T09:44:55.417Z,1.50
2022-08-08T09:48:02.490Z,1.23
2022-08-08T09:50:16.473Z,1.60
2022-08-08T09:52:58.271Z,1.33
2022-08-08T09:55:51.673Z,1.30
2022-08-08T09:58:28.068Z,1.55
2022-08-08T10:01:15.486Z,1.75
2022-08-08T10:04:01.967Z,2.08
2022-08-08T10:06:35.753Z,1.10
2022-08-08T10:09:05.057Z,1.30
2022-08-08T10:12:28.364Z,1.50
2022-08-08T10:14:39.284Z,1.40
2022-08-08T10:17:57.349Z,1.42
2022-08-08T10:20:01.815Z,1.55
2022-08-08T10:22:35.915Z,1.27
2022-08-08T10:25:07.308Z,1.50
2022-08-08T10:27:44.813Z,1.52
2022-08-08T10:30:16.343Z,1.30
2022-08-08T10:33:04.053Z,1.60
2022-08-08T10:36:07.626Z,1.52
2022-08-08T10:38:23.080Z,1.58
2022-08-08T10:40:53.993Z,1.60
2022-08-08T10:43:23.819Z,1.60
2022-08-08T10:45:57.138Z,1.55
2022-08-08T10:48:56.028Z,1.67
2022-08-08T10:51:26.066Z,1.58
2022-08-08T10:53:59.268Z,1.58
2022-08-08T10:56:34.547Z,1.50
2022-08-08T10:59:08.038Z,1.42
2022-08-08T11:01:39.473Z,1.73
2022-08-08T11:04:11.838Z,1.75
2022-08-08T11:06:41.640Z,1.50
2022-08-08T11:09:21.337Z,1.52
2022-08-08T11:12:04.626Z,1.38
2022-08-08T11:14:35.136Z,1.38
2022-08-08T11:17:08.728Z,1.55
2022-08-08T11:19:46.624Z,1.40
2022-08-08T11:22:27.045Z,1.30
2022-08-08T11:25:01.015Z,1.42
2022-08-08T11:27:37.111Z,1.38
2022-08-08T11:30:24.084Z,1.40
2022-08-08T11:32:56.594Z,1.50
2022-08-08T11:35:37.821Z,1.45
2022-08-08T11:38:39.526Z,1.20
2022-08-08T11:40:59.636Z,1.15
2022-08-08T11:43:38.537Z,1.30
2022-08-08T11:46:14.217Z,1.40
2022-08-08T11:48:48.057Z,1.30
2022-08-08T11:51:30.562Z,1.55
2022-08-08T11:54:26.860Z,1.10
2022-08-08T11:56:58.259Z,1.50
2022-08-08T12:00:00.677Z,1.30
2022-08-08T12:02:34.148Z,1.60
2022-08-08T12:05:12.339Z,1.98
2022-08-08T12:07:52.272Z,1.25
2022-08-08T12:10:22.805Z,1.38
2022-08-08T12:13:02.134Z,1.42
2022-08-08T12:15:40.169Z,1.38
2022-08-08T12:18:20.773Z,1.17
2022-08-08T12:20:53.217Z,1.25
2022-08-08T12:23:43.663Z,1.13
2022-08-08T12:26:27.748Z,1.58
2022-08-08T12:29:36.249Z,1.42
2022-08-08T12:32:17.085Z,1.40
2022-08-08T12:34:58.899Z,1.40
2022-08-08T12:37:41.207Z,1.00
2022-08-08T12:40:23.049Z,1.10
2022-08-08T12:42:55.621Z,1.45
2022-08-08T12:45:59.157Z,1.52
2022-08-08T12:48:37.806Z,1.55
2022-08-08T12:51:11.142Z,1.30
2022-08-08T12:53:58.950Z,1.30
2022-08-08T12:56:36.634Z,1.40
2022-08-08T12:59:17.516Z,1.10
2022-08-08T13:01:53.459Z,1.20
2022-08-08T13:04:25.712Z,1.50
2022-08-08T13:07:03.145Z,1.30
2022-08-08T13:10:02.077Z,1.20
2022-08-08T13:12:32.426Z,1.30
2022-08-08T13:15:05.042Z,1.50
2022-08-08T13:17:54.291Z,1.00
2022-08-08T13:20:27.309Z,1.10
2022-08-08T13:25:51.219Z,1.30
2022-08-08T13:28:33.408Z,1.30
2022-08-08T13:31:04.080Z,1.33
2022-08-08T13:33:42.352Z,1.20
2022-08-08T13:36:12.266Z,1.20
2022-08-08T13:38:43.213Z,1.10
2022-08-08T13:41:16.347Z,1.05
2022-08-08T13:43:49.809Z,1.17
2022-08-08T13:46:26.563Z,1.20
2022-08-08T13:49:11.310Z,1.17
2022-08-08T13:51:56.023Z,1.55
2022-08-08T13:54:29.317Z,1.30
2022-08-08T13:57:13.159Z,1.27
2022-08-08T13:59:48.275Z,1.27
2022-08-08T14:02:20.547Z,1.25
2022-08-08T14:05:05.005Z,1.27
2022-08-08T14:07:42.237Z,1.17
2022-08-08T14:10:17.443Z,1.40
2022-08-08T14:12:48.392Z,1.10
2022-08-08T14:15:45.958Z,1.13
2022-08-08T14:18:35.059Z,1.30
2022-08-08T14:21:08.086Z,1.60
2022-08-08T14:24:07.480Z,1.10
2022-08-08T14:26:34.093Z,1.20
2022-08-08T14:29:06.096Z,1.42
2022-08-08T14:32:09.444Z,1.20
2022-08-08T14:34:42.458Z,1.30
2022-08-08T14:37:13.266Z,1.20
2022-08-08T14:39:50.235Z,1.33
2022-08-08T14:42:36.150Z,1.13
2022-08-08T14:45:10.118Z,1.30
2022-08-08T14:48:00.535Z,1.40
2022-08-08T14:50:38.387Z,1.20
2022-08-08T14:53:13.601Z,1.40
2022-08-08T14:55:43.774Z,1.38
2022-08-08T14:58:19.996Z,1.50
2022-08-08T15:00:50.527Z,1.67
2022-08-08T15:03:20.410Z,1.27
2022-08-08T15:05:53.633Z,1.33
2022-08-08T15:08:33.520Z,2.15
2022-08-08T15:11:09.039Z,1.33
2022-08-08T15:13:40.965Z,1.50
2022-08-08T15:16:27.827Z,1.40
2022-08-08T15:18:58.289Z,1.58
2022-08-08T15:21:27.724Z,1.25
2022-08-08T15:23:59.173Z,1.33
2022-08-08T15:26:29.563Z,1.35
2022-08-08T15:28:58.422Z,1.52
2022-08-08T15:32:03.886Z,1.50
2022-08-08T15:34:29.759Z,1.05
2022-08-08T15:37:03.356Z,1.27
2022-08-08T15:39:38.116Z,1.50
2022-08-08T15:42:10.488Z,1.23
2022-08-08T15:44:42.720Z,1.52
2022-08-08T15:47:15.636Z,1.60
2022-08-08T15:49:49.885Z,1.67
2022-08-08T15:52:22.029Z,1.38
2022-08-08T15:54:52.604Z,1.27
2022-08-08T15:57:23.030Z,1.40
2022-08-08T16:00:05.137Z,1.58
2022-08-08T16:02:50.783Z,1.50
2022-08-08T16:05:23.550Z,1.45
2022-08-08T16:07:54.290Z,1.40
2022-08-08T16:13:14.782Z,1.88
2022-08-08T16:13:28.553Z,1.70
2022-08-08T16:16:09.611Z,1.70
2022-08-08T16:18:56.911Z,1.58
2022-08-08T16:21:31.685Z,1.13
2022-08-08T16:24:02.309Z,1.33
2022-08-08T16:26:35.119Z,1.30
2022-08-08T16:29:07.761Z,1.60
2022-08-08T16:31:42.008Z,1.45
2022-08-08T16:34:18.318Z,1.40
2022-08-08T16:36:50.544Z,1.58
2022-08-08T16:39:59.870Z,1.40
2022-08-08T16:42:18.395Z,3.03
2022-08-08T16:44:59.011Z,1.30
2022-08-08T16:47:40.608Z,1.30
2022-08-08T16:50:14.839Z,2.38
2022-08-08T16:55:06.176Z,1.80
2022-08-08T16:55:55.472Z,1.30
2022-08-08T16:58:32.678Z,1.35
2022-08-08T17:01:05.666Z,1.70
2022-08-08T17:03:58.473Z,2.00
2022-08-08T17:06:41.798Z,1.40
2022-08-08T17:09:15.287Z,1.60
2022-08-08T17:11:48.582Z,1.60
2022-08-08T17:14:27.567Z,1.58
2022-08-08T17:17:04.487Z,1.45
2022-08-08T17:19:37.397Z,1.60
2022-08-08T17:22:10.685Z,1.42
2022-08-08T17:24:42.418Z,1.55
2022-08-08T17:27:10.935Z,1.47
2022-08-08T17:29:43.324Z,1.40
2022-08-08T17:32:29.015Z,1.60
2022-08-08T17:35:53.407Z,1.50
2022-08-08T17:37:53.349Z,1.47
2022-08-08T17:40:23.581Z,2.20
2022-08-08T17:42:54.441Z,1.70
2022-08-08T17:45:24.362Z,1.80
2022-08-08T17:47:54.779Z,1.90
2022-08-08T17:50:24.811Z,1.60
2022-08-08T17:52:57.626Z,1.50
2022-08-08T17:56:06.021Z,1.57
2022-08-08T17:58:17.057Z,1.60
2022-08-08T18:00:47.513Z,1.60
2022-08-08T18:03:25.799Z,1.57
2022-08-08T18:05:54.417Z,1.50
2022-08-08T18:08:37.972Z,1.50
2022-08-08T18:11:16.574Z,1.67
2022-08-08T18:13:49.428Z,1.60
2022-08-08T18:16:22.870Z,1.63
2022-08-08T18:18:56.229Z,1.63
2022-08-08T18:21:59.125Z,1.63
2022-08-08T18:24:21.325Z,1.43
2022-08-08T18:26:56.792Z,1.50
2022-08-08T18:29:32.987Z,1.50
2022-08-08T18:32:04.712Z,1.83
2022-08-08T18:34:40.258Z,1.50
2022-08-08T18:37:10.200Z,1.53
2022-08-08T18:39:46.424Z,1.47
2022-08-08T18:42:17.799Z,1.83
2022-08-08T18:44:55.743Z,1.63
2022-08-08T18:47:27.756Z,1.63
2022-08-08T18:50:00.308Z,1.60
2022-08-08T18:52:34.826Z,1.80
2022-08-08T18:55:09.856Z,1.97
2022-08-08T18:57:45.090Z,1.50
2022-08-08T19:00:20.879Z,1.60
2022-08-08T19:02:55.746Z,1.80
2022-08-08T19:05:31.818Z,1.63
2022-08-08T19:08:24.000Z,1.67
2022-08-08T19:10:56.843Z,1.40
2022-08-08T19:13:53.660Z,1.70
2022-08-08T19:16:19.257Z,1.50
2022-08-08T19:19:00.033Z,1.60
2022-08-08T19:21:33.460Z,1.80
2022-08-08T19:24:05.604Z,2.10
2022-08-08T19:26:35.694Z,1.50
2022-08-08T19:29:08.431Z,1.83
2022-08-08T19:31:36.836Z,2.00
2022-08-08T19:34:36.742Z,1.40
2022-08-08T19:36:58.460Z,1.90
2022-08-08T19:39:34.700Z,1.90
2022-08-08T19:42:06.948Z,1.30
2022-08-08T19:44:45.673Z,1.40
2022-08-08T19:47:24.716Z,1.63
2022-08-08T19:50:00.095Z,1.60
2022-08-08T19:52:35.031Z,1.70
2022-08-08T19:55:11.416Z,1.47
2022-08-08T19:57:42.586Z,1.60
2022-08-08T20:00:30.797Z,1.90
2022-08-08T20:03:01.301Z,2.20
2022-08-08T20:06:14.474Z,1.80
2022-08-08T20:08:28.353Z,2.07
2022-08-08T20:10:59.123Z,1.57
2022-08-08T20:14:13.260Z,1.80
2022-08-08T20:16:19.654Z,1.97
2022-08-08T20:18:52.965Z,1.90
2022-08-08T20:21:25.350Z,1.90
2022-08-08T20:23:57.992Z,1.73
2022-08-08T20:26:33.715Z,1.80
2022-08-08T20:29:03.946Z,1.70
2022-08-08T20:31:47.038Z,1.73
2022-08-08T20:34:29.310Z,2.30
2022-08-08T20:37:02.422Z,1.60
2022-08-08T20:39:39.018Z,1.77
2022-08-08T20:42:10.402Z,1.73
2022-08-08T20:44:39.042Z,1.90
2022-08-08T20:47:22.857Z,2.10
2022-08-08T20:49:54.282Z,2.13
2022-08-08T20:52:24.788Z,2.47
2022-08-08T20:54:53.256Z,1.90
2022-08-08T20:57:22.378Z,1.60
2022-08-08T20:59:55.881Z,1.93
2022-08-08T21:02:26.714Z,1.83
2022-08-08T21:05:00.755Z,2.10
2022-08-08T21:07:47.009Z,1.43
2022-08-08T21:10:16.859Z,1.80
2022-08-08T21:12:46.257Z,1.60
2022-08-08T21:16:05.373Z,1.90
2022-08-08T21:18:09.194Z,1.80
2022-08-08T21:20:41.915Z,2.13
2022-08-08T21:23:13.029Z,2.00
2022-08-08T21:25:49.019Z,2.07
2022-08-08T21:28:33.452Z,1.93
2022-08-08T21:31:05.793Z,2.20
2022-08-08T21:33:52.537Z,2.20
2022-08-08T21:36:28.945Z,1.90
2022-08-08T21:38:58.077Z,2.17
2022-08-08T21:41:38.505Z,2.00
2022-08-08T21:44:11.958Z,2.10
2022-08-08T21:48:05.525Z,1.70
2022-08-08T21:49:32.156Z,2.17
2022-08-08T21:54:27.270Z,2.23
2022-08-08T21:54:53.991Z,2.10
2022-08-08T21:57:42.492Z,1.97
2022-08-08T22:00:26.121Z,1.90
2022-08-08T22:02:55.022Z,2.10
2022-08-08T22:05:24.731Z,1.90
2022-08-08T22:07:58.561Z,2.10
2022-08-08T22:10:32.927Z,1.80
2022-08-08T22:13:18.279Z,2.00
2022-08-08T22:15:59.521Z,2.20
2022-08-08T22:18:30.616Z,1.80
2022-08-08T22:21:13.923Z,2.07
2022-08-08T22:23:50.965Z,2.00
2022-08-08T22:26:29.295Z,2.07
2022-08-08T22:29:15.044Z,2.20
2022-08-08T22:31:58.407Z,1.93
2022-08-08T22:34:31.759Z,2.70
2022-08-08T22:37:01.733Z,2.23
2022-08-08T22:39:39.443Z,2.13
2022-08-08T22:42:24.223Z,2.27
2022-08-08T22:44:59.701Z,2.10
2022-08-08T22:47:37.730Z,2.40
2022-08-08T22:50:26.789Z,2.60
2022-08-08T22:54:28.439Z,2.43
2022-08-08T22:55:59.438Z,1.93
2022-08-08T22:58:32.888Z,2.13
2022-08-08T23:01:02.229Z,2.63
2022-08-08T23:03:54.538Z,2.50
2022-08-08T23:06:24.380Z,2.30
2022-08-08T23:09:00.259Z,2.00
2022-08-08T23:12:18.448Z,2.47
2022-08-08T23:14:21.108Z,2.20
2022-08-08T23:16:57.922Z,1.93
2022-08-08T23:19:32.527Z,2.00
2022-08-08T23:22:04.343Z,2.13
2022-08-08T23:24:36.867Z,2.13
2022-08-08T23:27:10.617Z,2.33
2022-08-08T23:29:39.489Z,2.53
2022-08-08T23:32:11.577Z,2.40
2022-08-08T23:34:49.560Z,2.23
2022-08-08T23:37:54.049Z,2.20
2022-08-08T23:40:22.008Z,2.47
2022-08-08T23:42:51.372Z,2.30
2022-08-08T23:49:01.630Z,2.23
2022-08-08T23:49:05.629Z,2.93
2022-08-08T23:50:57.420Z,2.40
2022-08-08T23:54:05.708Z,2.60
2022-08-08T23:56:31.951Z,2.63
2022-08-08T23:59:01.038Z,2.57
